EWG29A EDDH-EKCH
Flight info
| Callsign | EWG29A |
|---|---|
| Flight time | N/A |
| Altitude | 23000 |
| Route | LUGEG3G/33 LUGEG P605 GESKA/N0377F220 Z711 MONAK |
| Aircraft | A319/M-SDE3FGHIRWY/LB1 |
Departure
| Time | 2026-05-04 17:16 |
|---|---|
| Airport | Hamburg Helmut Schmidt Airport (EDDH) |
Arrival
| Time | N/A |
|---|---|
| Airport | Copenhagen Kastrup Airport (EKCH) |
| Time | Latitude | Longitude | Altitude | Speed | Heading |
|---|---|---|---|---|---|
| 2026-05-04 16:33 | 53.63113 | 10.00376 | 48 ft | 0 kts | 88° |
| 2026-05-04 17:05 | 53.63113 | 10.00373 | 48 ft | 2 kts | 92° |
| 2026-05-04 17:06 | 53.63117 | 10.00333 | 48 ft | 2 kts | 109° |
| 2026-05-04 17:06 | 53.63123 | 10.00311 | 45 ft | 2 kts | 124° |
| 2026-05-04 17:07 | 53.63143 | 10.00274 | 45 ft | 2 kts | 145° |
| 2026-05-04 17:07 | 53.63152 | 10.00266 | 47 ft | 2 kts | 156° |
| 2026-05-04 17:07 | 53.63168 | 10.00257 | 47 ft | 0 kts | 173° |
| 2026-05-04 17:12 | 53.63144 | 10.00260 | 47 ft | 10 kts | 176° |
| 2026-05-04 17:12 | 53.62925 | 10.00108 | 45 ft | 0 kts | 213° |
| 2026-05-04 17:13 | 53.62900 | 10.00080 | 44 ft | 0 kts | 213° |
| 2026-05-04 17:14 | 53.62825 | 9.99943 | 46 ft | 14 kts | 256° |
| 2026-05-04 17:14 | 53.62830 | 9.99774 | 45 ft | 16 kts | 320° |
| 2026-05-04 17:14 | 53.62854 | 9.99749 | 47 ft | 0 kts | 331° |
| 2026-05-04 17:15 | 53.62883 | 9.99724 | 47 ft | 29 kts | 333° |
| 2026-05-04 17:15 | 53.64332 | 9.98474 | 141 ft | 184 kts | 332° |
| 2026-05-04 17:16 | 53.66901 | 9.96344 | 1355 ft | 230 kts | 336° |
| 2026-05-04 17:16 | 53.71644 | 9.95006 | 3786 ft | 234 kts | 354° |
| 2026-05-04 17:17 | 53.73266 | 9.95445 | 4643 ft | 244 kts | 25° |
| 2026-05-04 17:17 | 53.76132 | 10.02690 | 4970 ft | 263 kts | 72° |
| 2026-05-04 17:18 | 53.76790 | 10.05590 | 4968 ft | 265 kts | 71° |
| 2026-05-04 17:18 | 53.78285 | 10.11310 | 4967 ft | 265 kts | 67° |
| 2026-05-04 17:19 | 53.79894 | 10.16945 | 4974 ft | 266 kts | 66° |
| 2026-05-04 17:19 | 53.81527 | 10.22606 | 5265 ft | 272 kts | 66° |
| 2026-05-04 17:20 | 53.83251 | 10.28615 | 6992 ft | 294 kts | 66° |
| 2026-05-04 17:20 | 53.85084 | 10.35026 | 9217 ft | 310 kts | 66° |
| 2026-05-04 17:20 | 53.86035 | 10.38361 | 10278 ft | 319 kts | 66° |
| 2026-05-04 17:21 | 53.88084 | 10.45583 | 11431 ft | 365 kts | 66° |
| 2026-05-04 17:21 | 53.90338 | 10.53528 | 13335 ft | 380 kts | 66° |
| 2026-05-04 17:22 | 53.91489 | 10.57597 | 14286 ft | 385 kts | 66° |
| 2026-05-04 17:22 | 53.92651 | 10.61716 | 15221 ft | 389 kts | 65° |
| 2026-05-04 17:23 | 53.96227 | 10.74380 | 17931 ft | 403 kts | 65° |
| 2026-05-04 17:23 | 53.97442 | 10.78708 | 18731 ft | 408 kts | 65° |
| 2026-05-04 17:23 | 54.00685 | 10.86597 | 20201 ft | 417 kts | 37° |
| 2026-05-04 17:24 | 54.03171 | 10.89211 | 20950 ft | 418 kts | 23° |
| 2026-05-04 17:24 | 54.10645 | 10.97349 | 22881 ft | 437 kts | 40° |
| 2026-05-04 17:25 | 54.12827 | 11.00964 | 22981 ft | 438 kts | 44° |
| 2026-05-04 17:25 | 54.16976 | 11.08592 | 22979 ft | 438 kts | 46° |
| 2026-05-04 17:26 | 54.21078 | 11.16297 | 22981 ft | 438 kts | 46° |
| 2026-05-04 17:26 | 54.27267 | 11.27752 | 22977 ft | 438 kts | 40° |
| 2026-05-04 17:27 | 54.31977 | 11.34354 | 22979 ft | 437 kts | 37° |
| 2026-05-04 17:27 | 54.36707 | 11.40918 | 22976 ft | 437 kts | 37° |
| 2026-05-04 17:28 | 54.40630 | 11.46385 | 22974 ft | 437 kts | 37° |
| 2026-05-04 17:29 | 54.47700 | 11.56284 | 22845 ft | 436 kts | 37° |
| 2026-05-04 17:29 | 54.54672 | 11.66090 | 22041 ft | 428 kts | 37° |
| 2026-05-04 17:30 | 54.61453 | 11.75664 | 21277 ft | 423 kts | 37° |
| 2026-05-04 17:31 | 54.65949 | 11.82039 | 20770 ft | 419 kts | 37° |
| 2026-05-04 17:31 | 54.72658 | 11.91589 | 20024 ft | 414 kts | 37° |
| 2026-05-04 17:32 | 54.77076 | 11.97903 | 19533 ft | 410 kts | 37° |
| 2026-05-04 17:33 | 54.83634 | 12.07302 | 18814 ft | 405 kts | 37° |
| 2026-05-04 17:33 | 54.85801 | 12.10415 | 18581 ft | 404 kts | 37° |
| 2026-05-04 17:34 | 54.92252 | 12.19714 | 17825 ft | 400 kts | 37° |
| 2026-05-04 17:34 | 54.94388 | 12.22805 | 17562 ft | 398 kts | 37° |
| 2026-05-04 17:35 | 55.00736 | 12.32018 | 16773 ft | 394 kts | 37° |
| 2026-05-04 17:35 | 55.04928 | 12.38123 | 16256 ft | 391 kts | 37° |
| 2026-05-04 17:35 | 55.07010 | 12.41162 | 16008 ft | 389 kts | 38° |
| 2026-05-04 17:36 | 55.09084 | 12.44192 | 15758 ft | 388 kts | 38° |
| 2026-05-04 17:36 | 55.11147 | 12.47212 | 15506 ft | 387 kts | 38° |
| 2026-05-04 17:36 | 55.13202 | 12.50224 | 15260 ft | 385 kts | 38° |
| 2026-05-04 17:36 | 55.15250 | 12.53230 | 15013 ft | 383 kts | 38° |
| 2026-05-04 17:37 | 55.17288 | 12.56225 | 14769 ft | 382 kts | 38° |
| 2026-05-04 17:37 | 55.19316 | 12.59210 | 14521 ft | 380 kts | 38° |
| 2026-05-04 17:37 | 55.21341 | 12.62193 | 14288 ft | 379 kts | 38° |
| 2026-05-04 17:37 | 55.23329 | 12.65128 | 14053 ft | 378 kts | 38° |
| 2026-05-04 17:38 | 55.25331 | 12.68096 | 13822 ft | 376 kts | 38° |
| 2026-05-04 17:38 | 55.27326 | 12.71061 | 13555 ft | 375 kts | 38° |
| 2026-05-04 17:38 | 55.29315 | 12.74021 | 13286 ft | 373 kts | 38° |
| 2026-05-04 17:38 | 55.31288 | 12.76958 | 13023 ft | 371 kts | 38° |
| 2026-05-04 17:39 | 55.35212 | 12.82809 | 12504 ft | 368 kts | 38° |
| 2026-05-04 17:39 | 55.37160 | 12.85719 | 12246 ft | 366 kts | 38° |
| 2026-05-04 17:39 | 55.39098 | 12.88618 | 11996 ft | 364 kts | 38° |
| 2026-05-04 17:40 | 55.41027 | 12.91502 | 11736 ft | 363 kts | 36° |
| 2026-05-04 17:40 | 55.43166 | 12.93604 | 11482 ft | 354 kts | 14° |
| 2026-05-04 17:40 | 55.45561 | 12.94195 | 11240 ft | 344 kts | 352° |
| 2026-05-04 17:40 | 55.47823 | 12.93196 | 10990 ft | 329 kts | 329° |
| 2026-05-04 17:41 | 55.49582 | 12.90856 | 10726 ft | 309 kts | 306° |
| 2026-05-04 17:41 | 55.50583 | 12.87629 | 10384 ft | 294 kts | 282° |
| 2026-05-04 17:41 | 55.50658 | 12.84164 | 10260 ft | 276 kts | 257° |
| 2026-05-04 17:41 | 55.49888 | 12.81165 | 10061 ft | 267 kts | 236° |
| 2026-05-04 17:42 | 55.48796 | 12.78526 | 9659 ft | 265 kts | 235° |
| 2026-05-04 17:42 | 55.47703 | 12.75914 | 9222 ft | 264 kts | 235° |
| 2026-05-04 17:42 | 55.46610 | 12.73319 | 8797 ft | 262 kts | 233° |
| 2026-05-04 17:42 | 55.45204 | 12.71274 | 8354 ft | 267 kts | 207° |
| 2026-05-04 17:43 | 55.43373 | 12.70635 | 7910 ft | 275 kts | 180° |
| 2026-05-04 17:43 | 55.41543 | 12.71582 | 7500 ft | 284 kts | 153° |
| 2026-05-04 17:43 | 55.40095 | 12.73973 | 7086 ft | 291 kts | 125° |
| 2026-05-04 17:43 | 55.39390 | 12.77309 | 6682 ft | 295 kts | 97° |
| 2026-05-04 17:44 | 55.39529 | 12.80885 | 6276 ft | 295 kts | 72° |
| 2026-05-04 17:44 | 55.40493 | 12.83988 | 5898 ft | 288 kts | 44° |
| 2026-05-04 17:44 | 55.42098 | 12.85906 | 5682 ft | 272 kts | 17° |
| 2026-05-04 17:44 | 55.43837 | 12.87004 | 5560 ft | 260 kts | 15° |
| 2026-05-04 17:45 | 55.45522 | 12.88047 | 5316 ft | 255 kts | 15° |
| 2026-05-04 17:45 | 55.47189 | 12.89081 | 5010 ft | 253 kts | 15° |
| 2026-05-04 17:45 | 55.48844 | 12.90099 | 4704 ft | 251 kts | 15° |
| 2026-05-04 17:45 | 55.50529 | 12.90615 | 4356 ft | 243 kts | 351° |
| 2026-05-04 17:46 | 55.52204 | 12.90331 | 4075 ft | 240 kts | 350° |
| 2026-05-04 17:46 | 55.53855 | 12.90045 | 3992 ft | 238 kts | 350° |
| 2026-05-04 17:46 | 55.55471 | 12.89777 | 3991 ft | 230 kts | 351° |
| 2026-05-04 17:46 | 55.57069 | 12.89516 | 3996 ft | 231 kts | 351° |
| 2026-05-04 17:47 | 55.58665 | 12.89256 | 3995 ft | 230 kts | 351° |
| 2026-05-04 17:47 | 55.60257 | 12.88997 | 3994 ft | 230 kts | 351° |
| 2026-05-04 17:47 | 55.61832 | 12.88796 | 3991 ft | 232 kts | 359° |
| 2026-05-04 17:47 | 55.63378 | 12.89654 | 3999 ft | 239 kts | 30° |
| 2026-05-04 17:48 | 55.64645 | 12.91551 | 3992 ft | 239 kts | 38° |
| 2026-05-04 17:48 | 55.65982 | 12.93240 | 3992 ft | 233 kts | 16° |
| 2026-05-04 17:48 | 55.67553 | 12.93524 | 3988 ft | 225 kts | 344° |
| 2026-05-04 17:48 | 55.68881 | 12.92318 | 3948 ft | 211 kts | 316° |
| 2026-05-04 17:49 | 55.69944 | 12.90613 | 3885 ft | 201 kts | 315° |
| 2026-05-04 17:49 | 55.70952 | 12.88948 | 3728 ft | 195 kts | 310° |
| 2026-05-04 17:49 | 55.71560 | 12.86841 | 3463 ft | 194 kts | 286° |
| 2026-05-04 17:49 | 55.71913 | 12.84552 | 3212 ft | 195 kts | 285° |
| 2026-05-04 17:50 | 55.72261 | 12.82227 | 2958 ft | 195 kts | 285° |
| 2026-05-04 17:50 | 55.72458 | 12.79907 | 2851 ft | 188 kts | 263° |
| 2026-05-04 17:50 | 55.72073 | 12.77740 | 2778 ft | 183 kts | 238° |
| 2026-05-04 17:50 | 55.71078 | 12.76367 | 2559 ft | 189 kts | 200° |
| 2026-05-04 17:51 | 55.69811 | 12.75814 | 2389 ft | 188 kts | 193° |
| 2026-05-04 17:51 | 55.68508 | 12.75464 | 2335 ft | 190 kts | 191° |
| 2026-05-04 17:51 | 55.67274 | 12.74810 | 2256 ft | 184 kts | 222° |
| 2026-05-04 17:51 | 55.66290 | 12.73244 | 1807 ft | 197 kts | 225° |
| 2026-05-04 17:52 | 55.65306 | 12.71667 | 1720 ft | 189 kts | 225° |
| 2026-05-04 17:52 | 55.64300 | 12.70180 | 1629 ft | 181 kts | 217° |
| 2026-05-04 17:52 | 55.63161 | 12.69196 | 1910 ft | 186 kts | 196° |
| 2026-05-04 17:52 | 55.61862 | 12.69090 | 2421 ft | 190 kts | 172° |
| 2026-05-04 17:53 | 55.60615 | 12.69920 | 3123 ft | 198 kts | 159° |
| 2026-05-04 17:53 | 55.59301 | 12.70347 | 3338 ft | 197 kts | 183° |
| 2026-05-04 17:53 | 55.57911 | 12.70301 | 3007 ft | 204 kts | 185° |
| 2026-05-04 17:53 | 55.56481 | 12.70600 | 2611 ft | 215 kts | 158° |
| 2026-05-04 17:54 | 55.55326 | 12.72302 | 2241 ft | 223 kts | 121° |
| 2026-05-04 17:54 | 55.54877 | 12.74884 | 2048 ft | 218 kts | 96° |
| 2026-05-04 17:54 | 55.54712 | 12.77467 | 2081 ft | 203 kts | 95° |
| 2026-05-04 17:54 | 55.54565 | 12.79890 | 2235 ft | 200 kts | 95° |
| 2026-05-04 17:55 | 55.54420 | 12.82320 | 2487 ft | 199 kts | 95° |
| 2026-05-04 17:55 | 55.54276 | 12.84742 | 2747 ft | 200 kts | 95° |
| 2026-05-04 17:55 | 55.54289 | 12.87181 | 2956 ft | 199 kts | 70° |
| 2026-05-04 17:55 | 55.55024 | 12.89153 | 3002 ft | 195 kts | 35° |
| 2026-05-04 17:56 | 55.56156 | 12.90411 | 2981 ft | 193 kts | 37° |
| 2026-05-04 17:56 | 55.56919 | 12.92406 | 3221 ft | 211 kts | 72° |
| 2026-05-04 17:56 | 55.56826 | 12.94999 | 4513 ft | 215 kts | 118° |
| 2026-05-04 17:56 | 55.55815 | 12.96836 | 5899 ft | 213 kts | 159° |
| 2026-05-04 17:57 | 55.54333 | 12.97576 | 6860 ft | 237 kts | 174° |
| 2026-05-04 17:57 | 55.52507 | 12.98115 | 7039 ft | 294 kts | 175° |
| 2026-05-04 17:57 | 55.50298 | 12.98708 | 7038 ft | 346 kts | 175° |
| 2026-05-04 17:57 | 55.47752 | 12.99350 | 7021 ft | 390 kts | 175° |
| 2026-05-04 17:58 | 55.44948 | 12.99489 | 7335 ft | 407 kts | 186° |
| 2026-05-04 17:58 | 55.42199 | 12.99176 | 8754 ft | 376 kts | 189° |
| 2026-05-04 17:58 | 55.39942 | 12.98017 | 9887 ft | 311 kts | 207° |